Time;durP1;ratioP1;P1;durP2;ratioP2;P2;SDS_P1;SDS_P2;PMS_P1;PMS_P2;Temp;Humidity;BMP_temperature;BMP_pressure;BME280_temperature;BME280_humidity;BME280_pressure;Samples;Min_cycle;Max_cycle;Signal;HPM_P1;HPM_P2
2024/01/04 00:00:23;;;;;;;3.03;2.83;;;8.40;99.90;;;;;;5090631;28;20173;-79
2024/01/04 00:02:52;;;;;;;0.30;0.20;;;8.40;99.90;;;;;;5089010;28;20961;-79
2024/01/04 00:05:18;;;;;;;0.30;0.20;;;8.50;99.90;;;;;;5091081;28;20307;-79
2024/01/04 00:07:44;;;;;;;1.40;1.40;;;8.50;99.90;;;;;;5089852;28;20671;-79
2024/01/04 00:10:10;;;;;;;0.30;0.20;;;8.50;99.90;;;;;;5090112;28;20172;-79
2024/01/04 00:12:36;;;;;;;0.30;0.20;;;8.40;99.90;;;;;;5090746;28;20885;-79
2024/01/04 00:15:04;;;;;;;0.30;0.20;;;8.50;99.90;;;;;;5090250;28;20255;-79
2024/01/04 00:17:31;;;;;;;0.30;0.20;;;8.50;99.90;;;;;;5090005;28;20588;-79
2024/01/04 00:19:57;;;;;;;0.30;0.30;;;8.50;99.90;;;;;;5088543;28;20231;-79
2024/01/04 00:22:23;;;;;;;1.17;1.17;;;8.40;99.90;;;;;;5089779;28;20176;-79
2024/01/04 00:24:49;;;;;;;0.30;0.20;;;8.40;99.90;;;;;;5089373;28;20429;-79
2024/01/04 00:27:15;;;;;;;0.30;0.20;;;8.50;99.90;;;;;;5091460;28;20789;-80
2024/01/04 00:29:42;;;;;;;0.30;0.20;;;8.50;99.90;;;;;;5089807;28;20208;-79
2024/01/04 00:32:09;;;;;;;0.30;0.20;;;8.50;99.90;;;;;;5089334;28;20180;-79
2024/01/04 00:34:35;;;;;;;0.30;0.30;;;8.40;99.90;;;;;;5090777;28;20200;-80
2024/01/04 00:37:01;;;;;;;0.30;0.20;;;8.40;99.90;;;;;;5091323;28;20670;-80
2024/01/04 00:39:27;;;;;;;0.88;0.85;;;8.40;99.90;;;;;;5089693;28;20494;-79
2024/01/04 00:41:53;;;;;;;0.30;0.20;;;8.40;99.90;;;;;;5089282;28;20255;-79
2024/01/04 00:44:19;;;;;;;0.30;0.30;;;8.40;99.90;;;;;;5090761;28;20199;-79
2024/01/04 00:46:45;;;;;;;0.30;0.20;;;8.40;99.90;;;;;;5089294;28;20513;-79
2024/01/04 00:49:11;;;;;;;1.30;1.23;;;8.40;99.90;;;;;;5089608;28;20204;-79
2024/01/04 00:51:37;;;;;;;0.30;0.20;;;8.40;99.90;;;;;;5089198;28;20222;-79
2024/01/04 00:54:03;;;;;;;0.30;0.20;;;8.40;99.90;;;;;;5091026;28;20228;-79
2024/01/04 00:56:33;;;;;;;0.30;0.20;;;8.40;99.90;;;;;;5089024;28;20739;-79
2024/01/04 00:59:03;;;;;;;0.30;0.20;;;8.40;99.90;;;;;;5090161;28;20468;-79
2024/01/04 01:01:33;;;;;;;0.30;0.20;;;8.40;99.90;;;;;;5089164;28;20176;-80
2024/01/04 01:03:59;;;;;;;0.30;0.20;;;8.40;99.90;;;;;;5090308;28;20235;-80
2024/01/04 01:06:25;;;;;;;0.30;0.20;;;8.40;99.90;;;;;;5089496;28;20173;-79
2024/01/04 01:08:50;;;;;;;0.30;0.20;;;8.40;99.90;;;;;;5090012;28;20197;-79
2024/01/04 01:11:16;;;;;;;0.30;0.20;;;8.30;99.90;;;;;;5090164;28;20180;-79
2024/01/04 01:13:42;;;;;;;0.30;0.20;;;8.30;99.90;;;;;;5088685;28;20192;-79
2024/01/04 01:16:08;;;;;;;0.30;0.20;;;8.20;99.90;;;;;;5088954;28;20184;-80
2024/01/04 01:18:35;;;;;;;0.40;0.30;;;8.20;99.90;;;;;;5088724;28;20215;-79
2024/01/04 01:21:02;;;;;;;0.30;0.20;;;8.20;99.90;;;;;;5090088;28;20172;-80
2024/01/04 01:23:28;;;;;;;0.30;0.20;;;8.20;99.90;;;;;;5089349;28;20292;-79
2024/01/04 01:25:56;;;;;;;0.30;0.20;;;8.20;99.90;;;;;;5089891;28;20251;-78
2024/01/04 01:28:22;;;;;;;0.30;0.20;;;8.20;99.90;;;;;;5090521;28;20481;-80
2024/01/04 01:30:48;;;;;;;0.30;0.20;;;8.10;99.90;;;;;;5090549;28;20391;-79
2024/01/04 01:33:14;;;;;;;0.30;0.20;;;8.10;99.90;;;;;;5089905;28;20429;-80
2024/01/04 01:35:39;;;;;;;0.30;0.20;;;8.10;99.90;;;;;;5088887;28;20229;-80
2024/01/04 01:38:05;;;;;;;0.30;0.20;;;8.00;99.90;;;;;;5088264;28;20478;-79
2024/01/04 01:40:31;;;;;;;0.30;0.20;;;8.00;99.90;;;;;;5088461;28;20374;-79
2024/01/04 01:42:59;;;;;;;0.30;0.20;;;8.00;99.90;;;;;;5089315;28;20197;-79
2024/01/04 01:45:25;;;;;;;0.30;0.20;;;8.00;99.90;;;;;;5088902;28;20524;-79
2024/01/04 01:47:51;;;;;;;0.30;0.20;;;7.90;99.90;;;;;;5089543;28;20265;-79
2024/01/04 01:50:21;;;;;;;0.30;0.22;;;7.90;99.90;;;;;;5088565;28;20421;-79
2024/01/04 01:52:51;;;;;;;0.30;0.20;;;8.00;99.90;;;;;;5089454;28;20196;-79
2024/01/04 01:55:19;;;;;;;0.30;0.20;;;7.90;99.90;;;;;;5088355;28;20633;-79
2024/01/04 01:57:45;;;;;;;0.30;0.20;;;7.90;99.90;;;;;;5088386;28;20590;-79
2024/01/04 02:00:13;;;;;;;0.30;0.20;;;7.90;99.90;;;;;;5090269;28;20172;-81
2024/01/04 02:02:38;;;;;;;0.30;0.20;;;7.90;99.90;;;;;;5089285;28;20176;-79
2024/01/04 02:05:04;;;;;;;0.30;0.20;;;7.90;99.90;;;;;;5087716;28;20227;-79
2024/01/04 02:07:30;;;;;;;0.30;0.30;;;7.90;99.90;;;;;;5087825;28;20199;-79
2024/01/04 02:09:56;;;;;;;1.40;1.40;;;7.90;99.90;;;;;;5088085;28;20263;-80
2024/01/04 02:12:22;;;;;;;0.30;0.20;;;8.00;99.90;;;;;;5089810;28;20176;-79
2024/01/04 02:14:52;;;;;;;0.30;0.20;;;8.00;99.90;;;;;;5087963;28;20437;-80
2024/01/04 02:17:19;;;;;;;0.30;0.20;;;8.10;99.90;;;;;;5088298;28;20183;-80
2024/01/04 02:19:47;;;;;;;0.30;0.20;;;8.20;99.90;;;;;;5087911;28;20581;-79
2024/01/04 02:22:14;;;;;;;0.30;0.25;;;8.20;99.90;;;;;;5088292;28;20172;-80
2024/01/04 02:24:40;;;;;;;0.82;0.82;;;8.30;99.90;;;;;;5088229;28;20570;-79
2024/01/04 02:27:06;;;;;;;0.50;0.50;;;8.40;99.90;;;;;;5093033;28;20176;-79
2024/01/04 02:29:31;;;;;;;0.30;0.20;;;8.40;99.90;;;;;;5093207;28;20945;-79
2024/01/04 02:31:57;;;;;;;0.30;0.20;;;8.50;99.90;;;;;;5091963;28;20241;-79
2024/01/04 02:34:23;;;;;;;0.30;0.20;;;8.50;99.90;;;;;;5093169;28;20283;-79
2024/01/04 02:36:48;;;;;;;0.33;0.30;;;8.50;99.90;;;;;;5091706;28;20744;-79
2024/01/04 02:39:14;;;;;;;0.80;0.80;;;8.60;99.90;;;;;;5093007;28;20259;-79
2024/01/04 02:41:40;;;;;;;0.80;0.80;;;8.60;99.90;;;;;;5091943;28;20180;-79
2024/01/04 02:44:06;;;;;;;0.30;0.20;;;8.60;99.90;;;;;;5091744;28;20295;-79
2024/01/04 02:46:32;;;;;;;0.30;0.20;;;8.60;99.90;;;;;;5091605;28;20172;-80
2024/01/04 02:48:57;;;;;;;0.30;0.20;;;8.60;99.90;;;;;;5091565;28;20487;-79
2024/01/04 02:51:24;;;;;;;0.30;0.20;;;8.70;99.90;;;;;;5091700;28;20659;-79
2024/01/04 02:53:49;;;;;;;0.40;0.40;;;8.70;99.90;;;;;;5091276;28;20204;-78
2024/01/04 02:56:15;;;;;;;0.30;0.20;;;8.70;99.90;;;;;;5091398;28;20191;-78
2024/01/04 02:58:45;;;;;;;0.40;0.30;;;8.70;99.90;;;;;;5091246;28;20224;-78
2024/01/04 03:01:11;;;;;;;1.52;1.52;;;8.80;99.90;;;;;;5091415;28;20417;-79
2024/01/04 03:03:36;;;;;;;0.77;0.77;;;8.80;99.90;;;;;;5092170;28;20219;-79
2024/01/04 03:06:02;;;;;;;0.30;0.20;;;8.80;99.90;;;;;;5092157;28;20428;-77
2024/01/04 03:08:27;;;;;;;1.57;1.47;;;8.80;99.90;;;;;;5092338;28;20196;-78
2024/01/04 03:10:53;;;;;;;0.30;0.20;;;8.90;99.90;;;;;;5090812;28;20176;-77
2024/01/04 03:13:19;;;;;;;0.30;0.20;;;8.90;99.90;;;;;;5092426;28;20196;-79
2024/01/04 03:15:45;;;;;;;0.30;0.20;;;8.90;99.90;;;;;;5091278;28;20173;-78
2024/01/04 03:18:11;;;;;;;0.43;0.43;;;9.00;99.90;;;;;;5092270;28;20469;-78
2024/01/04 03:20:37;;;;;;;0.30;0.20;;;9.10;99.90;;;;;;5091137;28;20212;-78
2024/01/04 03:23:03;;;;;;;0.30;0.20;;;9.10;99.90;;;;;;5090749;28;20571;-79
2024/01/04 03:25:28;;;;;;;0.77;0.73;;;9.10;99.90;;;;;;5091161;28;20172;-78
2024/01/04 03:27:54;;;;;;;0.30;0.20;;;9.10;99.90;;;;;;5090719;28;20207;-78
2024/01/04 03:30:20;;;;;;;0.30;0.20;;;9.10;99.90;;;;;;5091207;28;20219;-78
2024/01/04 03:32:45;;;;;;;0.30;0.20;;;9.10;99.90;;;;;;5090541;28;20211;-78
2024/01/04 03:35:11;;;;;;;1.40;1.40;;;9.10;99.90;;;;;;5090669;28;20168;-78
2024/01/04 03:37:37;;;;;;;1.37;1.37;;;9.20;99.90;;;;;;5090547;28;20226;-78
2024/01/04 03:40:03;;;;;;;0.30;0.20;;;9.20;99.90;;;;;;5091840;28;20519;-78
2024/01/04 03:42:29;;;;;;;0.30;0.20;;;9.20;99.90;;;;;;5091771;28;20522;-78
2024/01/04 03:44:55;;;;;;;1.23;1.23;;;9.20;99.90;;;;;;5091890;28;20176;-78
2024/01/04 03:47:20;;;;;;;0.30;0.30;;;9.30;99.90;;;;;;5090866;28;20176;-78
2024/01/04 03:49:46;;;;;;;0.30;0.20;;;9.30;99.90;;;;;;5091780;28;20197;-78
2024/01/04 03:52:11;;;;;;;0.30;0.20;;;9.30;99.90;;;;;;5092282;28;20282;-78
2024/01/04 03:54:37;;;;;;;0.30;0.20;;;9.40;99.90;;;;;;5091522;28;20188;-78
2024/01/04 03:57:04;;;;;;;0.30;0.20;;;9.40;99.90;;;;;;5091420;28;20226;-78
2024/01/04 03:59:29;;;;;;;0.30;0.20;;;9.40;99.90;;;;;;5091509;28;20208;-78
2024/01/04 04:01:55;;;;;;;2.30;2.20;;;9.40;99.90;;;;;;5090358;28;20176;-78
2024/01/04 04:04:20;;;;;;;0.30;0.20;;;9.40;99.90;;;;;;5091519;28;20232;-78
2024/01/04 04:06:46;;;;;;;0.30;0.20;;;9.40;99.90;;;;;;5089480;28;20494;-78
2024/01/04 04:09:12;;;;;;;0.30;0.20;;;9.40;99.90;;;;;;5090089;28;20197;-78
2024/01/04 04:11:38;;;;;;;1.90;1.80;;;9.40;99.90;;;;;;5090084;28;20234;-78
2024/01/04 04:14:03;;;;;;;0.30;0.20;;;9.40;99.90;;;;;;5091246;28;20730;-80
2024/01/04 04:16:29;;;;;;;0.30;0.30;;;9.40;99.90;;;;;;5091349;28;20180;-78
2024/01/04 04:18:55;;;;;;;13.10;12.20;;;9.40;99.90;;;;;;5090816;28;20214;-79
2024/01/04 04:21:22;;;;;;;0.30;0.20;;;9.50;99.90;;;;;;5089986;28;20191;-79
2024/01/04 04:23:49;;;;;;;0.30;0.20;;;9.50;99.90;;;;;;5089905;28;20200;-78
2024/01/04 04:26:22;;;;;;;0.30;0.20;;;9.50;99.90;;;;;;5088734;28;20664;-78
2024/01/04 04:28:48;;;;;;;0.30;0.20;;;9.50;99.90;;;;;;5089632;28;20250;-78
2024/01/04 04:31:15;;;;;;;0.30;0.20;;;9.60;99.90;;;;;;5089739;28;20790;-78
2024/01/04 04:33:42;;;;;;;0.30;0.20;;;9.60;99.90;;;;;;5091095;28;20189;-78
2024/01/04 04:36:08;;;;;;;0.30;0.20;;;9.60;99.90;;;;;;5089536;28;20271;-79
2024/01/04 04:38:34;;;;;;;0.30;0.23;;;9.60;99.90;;;;;;5090628;28;20308;-78
2024/01/04 04:41:01;;;;;;;0.30;0.20;;;9.70;99.90;;;;;;5089458;28;20180;-79
2024/01/04 04:43:26;;;;;;;0.30;0.20;;;9.70;99.90;;;;;;5090774;28;20211;-78
2024/01/04 04:45:52;;;;;;;0.30;0.30;;;9.70;99.90;;;;;;5090744;28;20649;-78
2024/01/04 04:48:18;;;;;;;0.30;0.20;;;9.80;99.90;;;;;;5088881;28;20200;-78
2024/01/04 04:50:44;;;;;;;0.30;0.20;;;9.80;99.90;;;;;;5089465;28;20180;-78
2024/01/04 04:53:09;;;;;;;0.30;0.20;;;9.80;99.90;;;;;;5088964;28;20257;-78
2024/01/04 04:55:35;;;;;;;0.40;0.40;;;9.70;99.90;;;;;;5089207;28;20534;-79
2024/01/04 04:58:01;;;;;;;0.30;0.20;;;9.70;99.90;;;;;;5088860;28;20292;-78
2024/01/04 05:00:27;;;;;;;0.30;0.30;;;9.70;99.90;;;;;;5089485;28;20244;-78
2024/01/04 05:02:52;;;;;;;2.33;2.23;;;9.70;99.90;;;;;;5090078;28;20425;-78
2024/01/04 05:05:18;;;;;;;0.30;0.20;;;9.80;99.90;;;;;;5089261;28;20469;-78
2024/01/04 05:07:44;;;;;;;0.30;0.20;;;9.80;99.90;;;;;;5089119;28;20180;-78
2024/01/04 05:10:09;;;;;;;0.30;0.20;;;9.80;99.90;;;;;;5089323;28;20173;-78
2024/01/04 05:12:35;;;;;;;0.50;0.30;;;9.90;99.90;;;;;;5090156;28;20208;-79
2024/01/04 05:15:01;;;;;;;0.30;0.23;;;9.90;99.90;;;;;;5088085;28;20605;-78
2024/01/04 05:17:27;;;;;;;0.30;0.20;;;9.90;99.90;;;;;;5088897;28;20233;-80
2024/01/04 05:19:53;;;;;;;0.30;0.20;;;10.00;99.90;;;;;;5089654;28;20216;-78
2024/01/04 05:22:19;;;;;;;0.30;0.20;;;10.00;99.90;;;;;;5090510;28;20779;-79
2024/01/04 05:24:44;;;;;;;0.35;0.30;;;10.00;99.90;;;;;;5088270;28;20653;-78
2024/01/04 05:27:10;;;;;;;26.60;15.93;;;9.90;99.90;;;;;;5087960;28;20168;-79
2024/01/04 05:29:36;;;;;;;0.30;0.20;;;9.90;99.90;;;;;;5088111;28;20215;-79
2024/01/04 05:32:02;;;;;;;0.30;0.20;;;9.90;99.90;;;;;;5090211;28;20307;-78
2024/01/04 05:34:32;;;;;;;0.30;0.20;;;9.90;99.90;;;;;;5089540;28;20451;-78
2024/01/04 05:36:58;;;;;;;0.30;0.20;;;10.00;99.90;;;;;;5089456;28;20414;-78
2024/01/04 05:39:25;;;;;;;0.68;0.65;;;10.00;99.90;;;;;;5088243;28;20228;-79
2024/01/04 05:41:51;;;;;;;0.30;0.30;;;10.00;99.90;;;;;;5089439;28;20173;-78
2024/01/04 05:44:17;;;;;;;0.30;0.20;;;10.00;99.90;;;;;;5088267;28;20577;-78
2024/01/04 05:46:43;;;;;;;1.27;1.27;;;10.00;99.90;;;;;;5088538;28;20180;-78
2024/01/04 05:49:10;;;;;;;0.40;0.20;;;10.00;99.90;;;;;;5088138;28;20707;-78
2024/01/04 05:51:36;;;;;;;0.30;0.20;;;10.00;99.90;;;;;;5088142;28;20179;-78
2024/01/04 05:54:02;;;;;;;0.30;0.20;;;10.00;99.90;;;;;;5089422;28;20600;-78
2024/01/04 05:56:28;;;;;;;0.65;0.65;;;10.00;99.90;;;;;;5088108;28;20701;-78
2024/01/04 05:58:54;;;;;;;0.30;0.20;;;10.00;99.90;;;;;;5089320;28;20318;-79
2024/01/04 06:01:20;;;;;;;0.30;0.20;;;10.00;99.90;;;;;;5093689;28;20853;-79
2024/01/04 06:03:45;;;;;;;0.30;0.20;;;10.10;99.90;;;;;;5093448;28;20713;-78
2024/01/04 06:06:14;;;;;;;0.30;0.20;;;10.10;99.90;;;;;;5093421;28;20176;-79
2024/01/04 06:08:41;;;;;;;0.30;0.20;;;10.10;99.90;;;;;;5093062;28;20199;-78
2024/01/04 06:11:07;;;;;;;0.30;0.20;;;10.10;99.90;;;;;;5092183;28;20772;-78
2024/01/04 06:13:33;;;;;;;0.30;0.20;;;10.10;99.90;;;;;;5093727;28;20347;-79
2024/01/04 06:16:12;;;;;;;0.30;0.20;;;10.10;99.90;;;;;;5093182;28;20172;-78
2024/01/04 06:18:38;;;;;;;0.30;0.30;;;10.00;99.90;;;;;;5092440;28;20712;-78
2024/01/04 06:21:06;;;;;;;0.30;0.20;;;10.00;99.90;;;;;;5093127;28;20332;-78
2024/01/04 06:23:32;;;;;;;0.30;0.20;;;10.00;99.90;;;;;;5093124;28;20216;-79
2024/01/04 06:25:58;;;;;;;0.30;0.30;;;9.90;99.90;;;;;;5093053;28;20566;-78
2024/01/04 06:28:24;;;;;;;0.30;0.20;;;9.90;99.90;;;;;;5089050;28;20703;-79
2024/01/04 06:30:50;;;;;;;0.40;0.40;;;9.90;99.90;;;;;;5090634;28;20204;-79
2024/01/04 06:33:16;;;;;;;0.30;0.20;;;9.90;99.90;;;;;;5091928;28;20493;-78
2024/01/04 06:35:42;;;;;;;0.35;0.32;;;9.90;99.90;;;;;;5089224;28;20965;-78
2024/01/04 06:38:09;;;;;;;0.30;0.30;;;9.80;99.90;;;;;;5090029;28;20224;-78
2024/01/04 06:40:35;;;;;;;0.52;0.52;;;9.80;99.90;;;;;;5092027;28;20180;-79
2024/01/04 06:43:03;;;;;;;0.30;0.20;;;9.80;99.90;;;;;;5092790;28;20257;-78
2024/01/04 06:45:29;;;;;;;0.30;0.28;;;9.80;99.90;;;;;;5090257;28;20177;-78
2024/01/04 06:47:55;;;;;;;1.65;1.60;;;9.80;99.90;;;;;;5090009;28;20570;-78
2024/01/04 06:50:22;;;;;;;0.30;0.20;;;9.70;99.90;;;;;;5089327;28;20178;-79
2024/01/04 06:52:48;;;;;;;0.30;0.20;;;9.70;99.90;;;;;;5087556;28;20287;-78
2024/01/04 06:55:15;;;;;;;1.60;1.50;;;9.70;99.90;;;;;;5087381;28;20263;-79
2024/01/04 06:57:41;;;;;;;0.30;0.20;;;9.70;99.90;;;;;;5088401;28;20445;-78
2024/01/04 07:00:08;;;;;;;1.30;1.30;;;9.70;99.90;;;;;;5088958;28;20208;-78
2024/01/04 07:02:35;;;;;;;0.30;0.22;;;9.70;99.90;;;;;;5088820;28;20535;-80
2024/01/04 07:05:03;;;;;;;0.38;0.38;;;9.70;99.90;;;;;;5087078;28;20380;-79
2024/01/04 07:07:30;;;;;;;0.88;0.88;;;9.70;99.90;;;;;;5087001;28;20181;-78
2024/01/04 07:09:56;;;;;;;0.30;0.20;;;9.70;99.90;;;;;;5084307;28;20850;-78
2024/01/04 07:12:22;;;;;;;0.50;0.50;;;9.70;99.90;;;;;;5067507;28;20488;-78
2024/01/04 07:14:47;;;;;;;0.30;0.20;;;9.70;99.90;;;;;;5068888;28;20562;-78
2024/01/04 07:17:14;;;;;;;0.30;0.20;;;9.70;99.90;;;;;;5067429;28;20185;-78
2024/01/04 07:19:44;;;;;;;0.40;0.40;;;9.80;99.90;;;;;;5068456;28;20204;-78
2024/01/04 07:22:10;;;;;;;0.30;0.30;;;9.80;99.90;;;;;;5069110;28;20182;-79
2024/01/04 07:24:36;;;;;;;0.30;0.20;;;9.80;99.90;;;;;;5087877;28;20212;-78
2024/01/04 07:27:03;;;;;;;1.40;1.40;;;9.80;99.90;;;;;;5089944;28;20180;-78
2024/01/04 07:29:30;;;;;;;0.30;0.20;;;9.90;99.90;;;;;;5089346;28;20189;-78
2024/01/04 07:31:55;;;;;;;0.30;0.30;;;9.90;99.90;;;;;;5086389;28;20263;-78
2024/01/04 07:34:22;;;;;;;0.30;0.20;;;10.00;99.90;;;;;;5086140;28;20280;-78
2024/01/04 07:36:48;;;;;;;1.30;1.30;;;10.10;99.90;;;;;;5088498;28;20211;-78
2024/01/04 07:39:15;;;;;;;0.30;0.20;;;10.10;99.90;;;;;;5088625;28;20216;-78
2024/01/04 07:41:41;;;;;;;0.30;0.20;;;10.20;99.90;;;;;;5087530;28;20549;-79
2024/01/04 07:44:08;;;;;;;0.30;0.20;;;10.20;99.90;;;;;;5086851;28;20494;-78
2024/01/04 07:46:33;;;;;;;0.30;0.20;;;10.30;99.90;;;;;;5084823;28;20403;-78
2024/01/04 07:48:59;;;;;;;0.30;0.20;;;10.40;99.90;;;;;;5086355;28;20195;-78
2024/01/04 07:51:25;;;;;;;0.30;0.20;;;10.40;99.90;;;;;;5086260;28;20586;-78
2024/01/04 07:53:50;;;;;;;0.30;0.20;;;10.50;99.90;;;;;;5084063;28;20204;-79
2024/01/04 07:56:16;;;;;;;0.30;0.20;;;10.60;99.90;;;;;;5086206;28;20676;-78
2024/01/04 07:58:42;;;;;;;0.30;0.30;;;10.80;99.90;;;;;;5087503;28;20216;-79
2024/01/04 08:01:08;;;;;;;1.07;1.07;;;11.20;99.90;;;;;;5090324;28;20508;-79
2024/01/04 08:03:34;;;;;;;0.47;0.47;;;11.90;99.90;;;;;;5089076;28;20204;-78
2024/01/04 08:06:00;;;;;;;0.40;0.40;;;12.70;99.90;;;;;;5089450;28;20745;-78
2024/01/04 08:08:28;;;;;;;0.40;0.30;;;13.50;99.90;;;;;;5080410;28;20453;-79
2024/01/04 08:10:54;;;;;;;0.60;0.60;;;14.40;99.90;;;;;;5091169;28;20456;-78
2024/01/04 08:13:20;;;;;;;0.40;0.30;;;15.20;99.90;;;;;;5091132;28;20958;-80
2024/01/04 08:15:46;;;;;;;0.37;0.30;;;15.60;99.90;;;;;;5089813;28;20421;-80
2024/01/04 08:18:11;;;;;;;0.43;0.37;;;16.50;99.90;;;;;;5091395;28;20554;-82
2024/01/04 08:20:37;;;;;;;0.40;0.20;;;17.30;99.90;;;;;;5091318;28;20187;-79
2024/01/04 08:23:03;;;;;;;0.40;0.20;;;17.70;99.90;;;;;;5088474;28;20287;-82
2024/01/04 08:25:29;;;;;;;0.40;0.30;;;18.20;99.90;;;;;;5087603;28;20509;-81
2024/01/04 08:27:55;;;;;;;1.17;0.80;;;18.80;99.90;;;;;;5086771;28;20494;-80
2024/01/04 08:30:21;;;;;;;0.40;0.30;;;19.20;99.90;;;;;;5087614;28;20215;-79
2024/01/04 08:32:47;;;;;;;0.40;0.20;;;19.50;99.90;;;;;;5089033;28;20432;-79
2024/01/04 08:35:15;;;;;;;0.30;0.20;;;19.70;99.90;;;;;;5082493;28;20442;-80
2024/01/04 08:37:44;;;;;;;0.57;0.57;;;20.10;99.90;;;;;;5087229;28;20472;-79
2024/01/04 08:40:09;;;;;;;0.40;0.20;;;20.40;99.90;;;;;;5087427;28;20842;-80
2024/01/04 08:42:35;;;;;;;0.30;0.20;;;20.80;99.90;;;;;;5088155;28;20823;-80
2024/01/04 08:45:01;;;;;;;0.40;0.20;;;21.00;99.90;;;;;;5086364;28;20417;-80
2024/01/04 08:47:27;;;;;;;0.47;0.47;;;21.20;99.90;;;;;;5087486;28;20187;-80
2024/01/04 08:49:53;;;;;;;0.40;0.30;;;21.40;99.90;;;;;;5086682;28;20229;-80
2024/01/04 08:52:18;;;;;;;0.77;0.77;;;21.30;99.90;;;;;;5083383;28;20597;-80
2024/01/04 08:54:44;;;;;;;0.40;0.20;;;21.60;99.90;;;;;;5086531;28;20524;-79
2024/01/04 08:57:10;;;;;;;0.40;0.30;;;22.20;99.90;;;;;;5087100;28;20625;-80
2024/01/04 08:59:36;;;;;;;0.63;0.57;;;22.90;99.90;;;;;;5077250;28;20216;-80
2024/01/04 09:02:01;;;;;;;0.30;0.20;;;23.60;99.90;;;;;;5087675;28;20184;-81
2024/01/04 09:04:27;;;;;;;0.40;0.30;;;24.30;99.60;;;;;;5074541;28;20245;-81
2024/01/04 09:06:53;;;;;;;0.40;0.20;;;25.00;98.50;;;;;;5077855;28;20667;-81
2024/01/04 09:09:19;;;;;;;0.30;0.20;;;25.60;96.20;;;;;;5081696;28;20200;-80
2024/01/04 09:11:48;;;;;;;0.47;0.47;;;26.00;94.80;;;;;;5076700;28;20493;-81
2024/01/04 09:14:15;;;;;;;0.40;0.40;;;26.40;93.30;;;;;;5065290;28;20432;-80
2024/01/04 09:16:44;;;;;;;0.30;0.20;;;26.80;91.30;;;;;;5070340;28;20417;-81
2024/01/04 09:19:14;;;;;;;0.40;0.20;;;26.90;90.60;;;;;;5064736;28;20473;-80
2024/01/04 09:21:41;;;;;;;0.40;0.30;;;27.10;90.60;;;;;;5066453;28;20414;-81
2024/01/04 09:24:07;;;;;;;0.40;0.40;;;27.30;89.00;;;;;;5066968;28;20454;-81
2024/01/04 09:26:33;;;;;;;0.30;0.20;;;27.50;88.30;;;;;;5066028;28;20422;-81
2024/01/04 09:28:59;;;;;;;0.30;0.20;;;27.30;87.80;;;;;;5064847;28;20642;-81
2024/01/04 09:31:24;;;;;;;1.07;1.00;;;26.80;87.40;;;;;;5057361;28;22157;-81
2024/01/04 09:33:50;;;;;;;0.40;0.40;;;26.30;88.20;;;;;;5065763;28;20203;-80
2024/01/04 09:36:15;;;;;;;0.30;0.20;;;26.60;85.30;;;;;;5082782;28;20263;-81
2024/01/04 09:38:41;;;;;;;0.33;0.20;;;27.00;85.70;;;;;;5083070;28;20285;-81
2024/01/04 09:41:24;;;;;;;0.30;0.30;;;27.30;85.00;;;;;;5085025;28;20775;-80
2024/01/04 09:43:54;;;;;;;0.30;0.20;;;27.70;83.80;;;;;;5083502;28;20204;-80
2024/01/04 09:46:21;;;;;;;0.30;0.20;;;28.00;80.80;;;;;;5079492;28;20878;-81
2024/01/04 09:48:59;;;;;;;0.30;0.20;;;28.10;81.70;;;;;;5061008;28;20516;-81
2024/01/04 09:51:27;;;;;;;8.50;0.57;;;28.30;80.60;;;;;;5062654;28;20439;-81
2024/01/04 09:53:55;;;;;;;0.30;0.20;;;28.20;79.20;;;;;;5061558;28;20426;-81
2024/01/04 09:56:28;;;;;;;0.40;0.30;;;28.10;78.00;;;;;;5062625;28;20427;-80
2024/01/04 09:58:54;;;;;;;0.40;0.30;;;27.90;78.80;;;;;;5061501;28;20474;-81
2024/01/04 10:01:24;;;;;;;0.30;0.30;;;27.90;79.90;;;;;;5060222;28;21082;-80
2024/01/04 10:03:52;;;;;;;0.30;0.20;;;27.90;77.00;;;;;;5063134;28;20202;-81
2024/01/04 10:06:34;;;;;;;0.30;0.20;;;27.70;77.30;;;;;;5064414;28;20609;-80
2024/01/04 10:09:21;;;;;;;0.50;0.50;;;27.40;78.10;;;;;;5064570;28;20446;-80
2024/01/04 10:12:08;;;;;;;0.30;0.20;;;27.00;77.50;;;;;;5064236;28;20432;-80
2024/01/04 10:14:35;;;;;;;0.30;0.20;;;26.60;76.90;;;;;;5064155;28;20466;-80
2024/01/04 10:17:04;;;;;;;0.30;0.20;;;26.10;78.40;;;;;;5063722;28;20433;-80
2024/01/04 10:19:33;;;;;;;0.30;0.20;;;25.70;78.20;;;;;;5067335;28;20877;-80
2024/01/04 10:22:03;;;;;;;0.30;0.30;;;25.20;80.30;;;;;;5066641;28;20421;-80
2024/01/04 10:24:31;;;;;;;0.30;0.20;;;24.80;80.10;;;;;;5066115;28;20524;-80
2024/01/04 10:26:59;;;;;;;0.30;0.20;;;24.40;80.20;;;;;;5070734;28;20938;-80
2024/01/04 10:29:29;;;;;;;0.40;0.20;;;24.10;80.20;;;;;;5085875;28;20439;-80
2024/01/04 10:32:04;;;;;;;0.40;0.30;;;23.70;79.60;;;;;;5086693;28;20561;-80
2024/01/04 10:34:35;;;;;;;0.40;0.20;;;23.30;80.40;;;;;;5084826;28;20450;-81
2024/01/04 10:37:17;;;;;;;0.30;0.20;;;23.00;81.60;;;;;;5084895;28;20417;-80
2024/01/04 10:39:55;;;;;;;0.30;0.20;;;22.70;81.80;;;;;;5084126;28;20484;-80
2024/01/04 10:42:21;;;;;;;0.30;0.20;;;22.40;83.80;;;;;;5086135;28;20413;-80
2024/01/04 10:44:51;;;;;;;0.30;0.20;;;22.20;82.80;;;;;;5084896;28;20839;-78
2024/01/04 10:47:17;;;;;;;0.30;0.20;;;21.90;83.50;;;;;;5090166;28;20250;-79
2024/01/04 10:49:47;;;;;;;0.40;0.20;;;21.60;84.10;;;;;;5089098;28;20448;-80
2024/01/04 10:52:15;;;;;;;0.30;0.20;;;21.40;85.20;;;;;;5087626;28;20845;-79
2024/01/04 10:54:42;;;;;;;5.90;0.97;;;21.20;84.60;;;;;;5086850;28;20425;-80
2024/01/04 10:57:09;;;;;;;0.30;0.20;;;20.90;83.70;;;;;;5083235;28;20451;-79
2024/01/04 10:59:36;;;;;;;0.30;0.20;;;20.60;84.00;;;;;;5075509;28;20989;-79
2024/01/04 11:02:02;;;;;;;0.40;0.20;;;20.40;85.00;;;;;;5066963;28;20831;-80
2024/01/04 11:04:30;;;;;;;0.40;0.20;;;20.30;86.30;;;;;;5066716;28;20892;-79
2024/01/04 11:07:00;;;;;;;0.30;0.20;;;20.10;86.00;;;;;;5066424;28;20483;-79
2024/01/04 11:09:26;;;;;;;7.33;1.20;;;20.00;87.80;;;;;;5067463;28;20434;-80
2024/01/04 11:11:53;;;;;;;0.77;0.77;;;19.80;87.80;;;;;;5066728;28;20418;-80
2024/01/04 11:14:23;;;;;;;0.40;0.20;;;19.60;87.10;;;;;;5067154;28;20807;-80
2024/01/04 11:17:25;;;;;;;0.40;0.20;;;19.40;87.20;;;;;;5067020;28;20418;-80
2024/01/04 11:20:19;;;;;;;0.40;0.20;;;19.10;88.20;;;;;;5067005;28;20774;-80
2024/01/04 11:23:05;;;;;;;0.40;0.20;;;18.90;89.40;;;;;;5066940;28;21053;-80
2024/01/04 11:26:12;;;;;;;0.40;0.20;;;18.70;90.00;;;;;;5067385;28;20440;-80
2024/01/04 11:28:39;;;;;;;0.60;0.60;;;18.60;90.70;;;;;;5057188;28;20540;-79
2024/01/04 11:31:05;;;;;;;0.40;0.20;;;18.40;90.20;;;;;;5067227;28;20513;-81
2024/01/04 11:33:32;;;;;;;0.40;0.30;;;18.30;90.70;;;;;;5068260;28;20524;-80
2024/01/04 11:35:58;;;;;;;0.37;0.30;;;18.20;90.30;;;;;;5068516;28;20168;-79
2024/01/04 11:38:25;;;;;;;0.40;0.20;;;18.10;91.10;;;;;;5065618;28;20823;-80
2024/01/04 11:40:51;;;;;;;0.30;0.20;;;18.00;90.90;;;;;;5066149;28;20448;-80
2024/01/04 11:43:17;;;;;;;0.30;0.20;;;18.00;91.30;;;;;;5067436;28;20810;-80
2024/01/04 11:45:44;;;;;;;0.30;0.20;;;18.10;91.10;;;;;;5066083;28;20478;-79
2024/01/04 11:48:11;;;;;;;0.30;0.20;;;18.10;91.10;;;;;;5065103;28;20509;-79
2024/01/04 11:50:47;;;;;;;0.30;0.20;;;18.10;91.00;;;;;;5067504;28;20425;-79
2024/01/04 11:53:14;;;;;;;0.30;0.20;;;18.20;91.10;;;;;;5077150;28;20441;-79
2024/01/04 11:55:41;;;;;;;0.30;0.20;;;18.30;91.10;;;;;;5087977;28;20428;-79
2024/01/04 11:58:09;;;;;;;0.40;0.20;;;18.30;90.90;;;;;;5083985;28;20444;-80
2024/01/04 12:00:36;;;;;;;0.30;0.20;;;18.30;91.30;;;;;;5087920;28;21101;-80
2024/01/04 12:03:14;;;;;;;0.30;0.20;;;18.40;91.30;;;;;;5087598;28;21173;-80
2024/01/04 12:05:50;;;;;;;0.30;0.20;;;18.40;90.80;;;;;;5086879;28;20475;-80
2024/01/04 12:08:31;;;;;;;0.30;0.20;;;18.40;90.40;;;;;;5085313;28;20448;-79
2024/01/04 12:10:59;;;;;;;0.30;0.20;;;18.40;90.30;;;;;;5084008;28;21084;-80
2024/01/04 12:13:25;;;;;;;0.30;0.20;;;18.30;90.60;;;;;;5085561;28;20951;-80
2024/01/04 12:15:51;;;;;;;0.40;0.30;;;18.30;90.40;;;;;;5084544;28;20811;-80
2024/01/04 12:18:17;;;;;;;0.30;0.20;;;18.30;90.60;;;;;;5083696;28;20459;-80
2024/01/04 12:20:44;;;;;;;0.30;0.20;;;18.20;90.80;;;;;;5085965;28;20950;-80
2024/01/04 12:23:11;;;;;;;0.30;0.20;;;18.10;90.80;;;;;;5084345;28;20734;-80
2024/01/04 12:25:40;;;;;;;0.30;0.20;;;18.00;91.00;;;;;;5083214;28;20435;-81
2024/01/04 12:28:08;;;;;;;0.30;0.20;;;18.00;91.30;;;;;;5083229;28;20720;-80
2024/01/04 12:30:35;;;;;;;0.40;0.20;;;17.90;91.30;;;;;;5085812;28;20466;-79
2024/01/04 12:33:01;;;;;;;0.40;0.20;;;17.80;91.10;;;;;;5083464;28;20707;-80
2024/01/04 12:35:27;;;;;;;0.30;0.20;;;17.80;91.70;;;;;;5083370;28;20920;-80
2024/01/04 12:38:03;;;;;;;0.30;0.20;;;17.70;91.40;;;;;;5083689;28;20437;-80
2024/01/04 12:40:38;;;;;;;2.50;2.37;;;17.70;91.60;;;;;;5082582;28;20476;-80
2024/01/04 12:43:04;;;;;;;0.30;0.20;;;17.60;91.00;;;;;;5085413;28;20943;-80
2024/01/04 12:45:31;;;;;;;0.43;0.40;;;17.50;91.30;;;;;;5087018;28;21035;-79
2024/01/04 12:48:05;;;;;;;0.30;0.20;;;17.50;91.30;;;;;;5086544;28;20455;-80
2024/01/04 12:50:33;;;;;;;0.40;0.20;;;17.60;91.40;;;;;;5085881;28;20470;-80
2024/01/04 12:52:59;;;;;;;0.40;0.20;;;17.50;91.60;;;;;;5085831;28;20504;-81